Nearby METAR Reports

 

KBJC - Broomfield/Jeffc, Colorado, USA
Distance from station: NNW 11mi, 17km
Updated: 01/19/2019 6:45am
Clear
Clear
 Wind from WNW
Wind: WNW 18 mph , 30 km/h
Temperature: 34°F , 1°C
Wind Chill: 23°F , -5°C
Dew Point: 12°F , -11°C
Humidity: 41%
Barometer: 30.17 inHg , 1021.7 hPa
Clouds: Clear
Visibility: 30 miles , 48 km
2019/01/19 13:45 KBJC 191345Z 30016KT 30SM SKC 01/M11 A3017
KBKF - Buckley Angb/Den, Colorado, USA
Distance from station: E 16mi, 25km
Updated: 01/19/2019 6:58am
Few Clouds
Few Clouds
 Wind from S
Wind: S 9 mph , 15 km/h
Temperature: 19°F , -7°C
Wind Chill: 8°F , -13°C
Dew Point: 12°F , -11°C
Humidity: 73%
Barometer: 30.19 inHg , 1022.4 hPa
Clouds: Few Clouds
Visibility: 10 miles , 16 km
Cloud details: Few Clouds 9000 ft
2019/01/19 13:58 KBKF 191358Z 18008KT 10SM FEW090 M07/M11 A3019 RMK AO2A SLP256 T10681108
 
KAPA - Denver/Arapahoe, Colorado, USA
Distance from station: SE 16mi, 26km
Updated: 01/19/2019 6:53am
Few Clouds
Few Clouds
 Wind from S
Wind: S 5 mph , 7 km/h
Temperature: 18°F , -8°C
Wind Chill: 11°F , -12°C
Dew Point: 9°F , -13°C
Humidity: 68%
Barometer: 30.18 inHg , 1022 hPa
Clouds: Few Clouds
Visibility: 10 miles , 16 km
Cloud details: Few Clouds 8000 ft
Few Clouds 12000 ft
2019/01/19 13:53 KAPA 191353Z 18004KT 10SM FEW080 FEW120 M08/M13 A3018 RMK AO2 SLP271 T10781128
KEIK - Erie Muni, Colorado, USA
Distance from station: N 18mi, 29km
Updated: 01/19/2019 7:12am
Clear
Clear
 Wind from SW
Wind: SW 7 mph , 11 km/h
Temperature: 18°F , -8°C
Wind Chill: 9°F , -13°C
Dew Point: 14°F , -10°C
Humidity: 86%
Barometer: 30.23 inHg , 1023.7 hPa
Clouds: Clear
Visibility: 10 miles , 16 km
2019/01/19 14:12 KEIK 191412Z AUTO 23006KT 10SM CLR M08/M10 A3023 RMK AO2 T10831097
 
KBDU - Boulder Muni, Colorado, USA
Distance from station: NNW 22mi, 35km
Updated: 01/19/2019 7:12am
Clear
Clear
 Wind from WSW
Wind: WSW 7 mph , 11 km/h
Temperature: 36°F , 2°C
Wind Chill: 30°F , -1°C
Dew Point: 10°F , -12°C
Humidity: 35%
Barometer: 30.16 inHg , 1021.3 hPa
Clouds: Clear
Visibility: 10 miles , 16 km
2019/01/19 14:12 KBDU 191412Z AUTO 25006KT 10SM CLR 02/M12 A3016 RMK AO2
KDEN - Denver (dia), Colorado, USA
Distance from station: ENE 22mi, 35km
Updated: 01/19/2019 6:53am
Few Clouds
Few Clouds
 Wind from SSW
Wind: SSW 10 mph , 17 km/h
Temperature: 25°F , -4°C
Wind Chill: 15°F , -9°C
Dew Point: 16°F , -9°C
Humidity: 69%
Barometer: 30.17 inHg , 1021.7 hPa
Clouds: Few Clouds
Visibility: 10 miles , 16 km
Cloud details: Few Clouds 8000 ft
Few Clouds 22000 ft
2019/01/19 13:53 KDEN 191353Z 21009KT 10SM FEW080 FEW220 M04/M09 A3017 RMK AO2 SLP243 T10391089
 
KFTG - Denver F. Range, Colorado, USA
Distance from station: E 26mi, 42km
Updated: 01/19/2019 6:47am
Few Clouds
Few Clouds
 Wind from SSW
Wind: SSW 8 mph , 13 km/h
Temperature: 21°F , -6°C
Wind Chill: 11°F , -12°C
Dew Point: 16°F , -9°C
Humidity: 80%
Barometer: 30.18 inHg , 1022 hPa
Clouds: Few Clouds
Visibility: 10 miles , 16 km
Cloud details: Few Clouds 8500 ft
2019/01/19 13:47 KFTG 191347Z 20007KT 10SM FEW085 M06/M09 A3018
KLMO - Longmont/Vbrand, Colorado, USA
Distance from station: NNW 29mi, 47km
Updated: 01/19/2019 7:15am
Clear
Clear
 Wind from calm
Wind: Calm
Temperature: 21°F , -6°C
Dew Point: 18°F , -8°C
Humidity: 86%
Barometer: 30.19 inHg , 1022.4 hPa
Clouds: Clear
Visibility: 10 miles , 16 km
2019/01/19 14:15 KLMO 191415Z AUTO 00000KT 10SM CLR M06/M08 A3019 RMK AO2 T10601081
 
K0CO - Berthoud Pass, Colorado, USA
Distance from station: W 39mi, 62km
Updated: 01/19/2019 7:24am
Overcast
Overcast
 Wind from NW
Wind: NW 33 mph , 54 km/h, Gust: 44 mph , 70 km/h
Temperature: 1°F , -17°C
Wind Chill: -25°F , -32°C
Dew Point: -9°F , -23°C
Humidity: 60%
Barometer: 30.11 inHg , 1019.6 hPa
Clouds: Overcast
Cloud details: Overcast 100 ft
2019/01/19 14:24 K0CO 191424Z AUTO 32029G38KT OVC001 M17/M23 A3011 RMK AO2 PWINO
KMNH - Monument/Elbert, Colorado, USA
Distance from station: SSE 43mi, 68km
Updated: 01/19/2019 7:06am
Clear
Clear
 Wind from W
Wind: W 8 mph , 13 km/h
Temperature: 14°F , -10°C
Wind Chill: 3°F , -16°C
Dew Point: 3°F , -16°C
Humidity: 62%
Barometer: 30.19 inHg , 1022.4 hPa
Clouds: Clear
Visibility: 10 miles , 16 km
2019/01/19 14:06 KMNH 191406Z AUTO 26007KT 10SM CLR M10/M16 A3019 RMK AO2
 
KFNL - Ft Collins/Lovel, Colorado, USA
Distance from station: N 48mi, 78km
Updated: 01/19/2019 6:56am
Clear
Clear
 Wind from S
Wind: S 6 mph , 9 km/h
Temperature: 19°F , -7°C
Wind Chill: 11°F , -12°C
Dew Point: 18°F , -8°C
Humidity: 93%
Barometer: 30.18 inHg , 1022 hPa
Clouds: Clear
Visibility: 10 miles , 16 km
2019/01/19 13:56 KFNL 191356Z AUTO 17005KT 10SM CLR M07/M08 A3018 RMK AO2 SLP250 T10671083 FZRANO PNO $